Time;durP1;ratioP1;P1;durP2;ratioP2;P2;SDS_P1;SDS_P2;PMS_P1;PMS_P2;Temp;Humidity;BMP_temperature;BMP_pressure;BME280_temperature;BME280_humidity;BME280_pressure;Samples;Min_cycle;Max_cycle;Signal;HPM_P1;HPM_P2
2023/06/18 00:02:02;;;;;;;0.00;0.00;;;;;;;28.14;38.80;101446.31;5030603;28;20029;-76
2023/06/18 00:04:27;;;;;;;0.00;0.00;;;;;;;28.25;38.54;101440.13;5030868;28;20028;-74
2023/06/18 00:06:54;;;;;;;0.00;0.00;;;;;;;28.28;38.92;101441.41;5030301;28;20713;-74
2023/06/18 00:09:20;;;;;;;0.00;0.00;;;;;;;28.15;39.50;101442.41;5019272;28;20034;-72
2023/06/18 00:11:45;;;;;;;0.00;0.00;;;;;;;28.25;38.93;101447.59;5034481;28;20139;-76
2023/06/18 00:14:10;;;;;;;0.00;0.00;;;;;;;28.03;39.50;101434.78;5035310;28;20029;-73
2023/06/18 00:16:36;;;;;;;0.00;0.00;;;;;;;28.46;38.33;101440.25;5036382;28;20025;-73
2023/06/18 00:19:01;;;;;;;0.00;0.00;;;;;;;28.21;38.91;101443.84;5035362;28;20350;-74
2023/06/18 00:21:26;;;;;;;0.00;0.00;;;;;;;27.40;40.93;101443.72;5033998;28;20103;-74
2023/06/18 00:23:52;;;;;;;0.00;0.00;;;;;;;27.38;40.86;101434.16;5034151;28;20036;-74
2023/06/18 00:26:18;;;;;;;0.00;0.00;;;;;;;27.72;40.54;101434.16;5044677;28;20762;-74
2023/06/18 00:28:44;;;;;;;0.00;0.00;;;;;;;27.94;39.55;101439.50;5034430;28;20033;-73
2023/06/18 00:31:11;;;;;;;0.00;0.00;;;;;;;27.86;39.58;101436.72;5035252;28;20075;-72
2023/06/18 00:33:37;;;;;;;0.00;0.00;;;;;;;27.80;39.71;101436.09;5035835;28;20060;-73
2023/06/18 00:36:04;;;;;;;0.00;0.00;;;;;;;27.87;39.62;101443.91;5034885;28;20037;-73
2023/06/18 00:38:32;;;;;;;0.00;0.00;;;;;;;27.89;39.55;101447.97;5020285;28;20100;-75
2023/06/18 00:40:58;;;;;;;0.00;0.00;;;;;;;27.71;39.93;101441.59;5039278;28;20057;-72
2023/06/18 00:43:27;;;;;;;0.00;0.00;;;;;;;27.66;40.34;101441.78;5034174;28;20428;-75
2023/06/18 00:45:53;;;;;;;0.00;0.00;;;;;;;27.77;39.60;101440.31;5036750;28;20025;-73
2023/06/18 00:48:19;;;;;;;0.00;0.00;;;;;;;28.07;39.69;101437.72;5034408;28;20547;-73
2023/06/18 00:50:46;;;;;;;0.00;0.00;;;;;;;28.08;39.39;101434.63;5033637;28;20104;-74
2023/06/18 00:53:13;;;;;;;0.00;0.00;;;;;;;27.79;39.64;101437.25;5028783;28;20029;-75
2023/06/18 00:55:41;;;;;;;0.00;0.00;;;;;;;27.84;39.30;101445.34;5046787;28;20384;-74
2023/06/18 00:58:06;;;;;;;0.00;0.00;;;;;;;27.93;39.19;101437.84;5034141;28;20460;-74
2023/06/18 01:00:34;;;;;;;0.00;0.00;;;;;;;27.88;39.65;101431.69;5033596;28;20034;-73
2023/06/18 01:03:02;;;;;;;0.00;0.00;;;;;;;27.73;39.58;101433.03;5020275;28;20053;-76
2023/06/18 01:05:31;;;;;;;0.00;0.00;;;;;;;27.72;39.72;101428.63;5034355;28;20053;-74
2023/06/18 01:07:58;;;;;;;0.00;0.00;;;;;;;27.70;40.15;101433.66;5035301;28;20115;-74
2023/06/18 01:10:28;;;;;;;0.00;0.00;;;;;;;27.58;40.44;101428.78;5049835;28;20091;-72
2023/06/18 01:12:57;;;;;;;0.00;0.00;;;;;;;27.81;39.69;101435.75;5049474;28;20025;-74
2023/06/18 01:15:26;;;;;;;0.00;0.00;;;;;;;27.50;40.27;101435.13;5030756;28;20037;-73
2023/06/18 01:17:56;;;;;;;0.00;0.00;;;;;;;27.60;40.54;101431.22;5030852;28;20028;-73
2023/06/18 01:20:24;;;;;;;0.00;0.00;;;;;;;27.60;39.74;101428.44;5049387;28;20041;-72
2023/06/18 01:22:57;;;;;;;0.00;0.00;;;;;;;27.49;40.65;101421.63;5049379;28;20041;-74
2023/06/18 01:25:25;;;;;;;0.00;0.00;;;;;;;27.67;40.16;101434.31;5047628;28;20088;-72
2023/06/18 01:27:53;;;;;;;0.00;0.00;;;;;;;27.59;40.30;101422.13;5046620;28;20033;-74
2023/06/18 01:30:20;;;;;;;0.00;0.00;;;;;;;27.55;40.67;101426.69;5049373;28;20040;-75
2023/06/18 01:32:46;;;;;;;0.00;0.00;;;;;;;27.38;40.92;101423.88;5047353;28;20504;-73
2023/06/18 01:35:17;;;;;;;0.00;0.00;;;;;;;27.44;40.83;101422.59;5049091;28;20025;-73
2023/06/18 01:38:01;;;;;;;0.00;0.00;;;;;;;27.86;40.00;101417.41;5034894;28;20382;-73
2023/06/18 01:40:38;;;;;;;0.00;0.00;;;;;;;27.74;39.89;101409.78;5041609;28;20077;-74
2023/06/18 01:43:15;;;;;;;0.00;0.00;;;;;;;27.80;40.42;101409.28;5049274;28;20509;-74
2023/06/18 01:45:50;;;;;;;0.00;0.00;;;;;;;27.78;39.88;101408.81;5047626;28;20409;-73
2023/06/18 01:48:20;;;;;;;0.00;0.00;;;;;;;27.76;39.94;101411.06;5049065;28;20068;-74
2023/06/18 01:50:48;;;;;;;0.00;0.00;;;;;;;27.71;40.37;101413.97;5042369;28;20382;-75
2023/06/18 01:53:17;;;;;;;0.00;0.00;;;;;;;27.60;40.42;101411.88;5040718;28;20368;-76
2023/06/18 01:55:47;;;;;;;0.00;0.00;;;;;;;27.86;39.94;101412.69;5050019;28;20032;-73
2023/06/18 01:58:16;;;;;;;0.00;0.00;;;;;;;27.85;40.18;101410.25;5046727;28;20055;-73
2023/06/18 02:00:41;;;;;;;0.00;0.00;;;;;;;27.80;40.06;101411.22;5036046;28;20556;-75
2023/06/18 02:03:07;;;;;;;0.00;0.00;;;;;;;27.75;40.41;101414.97;5042794;28;20099;-74
2023/06/18 02:05:34;;;;;;;0.00;0.00;;;;;;;27.66;40.86;101411.41;5046701;28;20040;-74
2023/06/18 02:07:59;;;;;;;0.00;0.00;;;;;;;27.64;41.24;101412.84;5042108;28;20037;-73
2023/06/18 02:10:25;;;;;;;0.00;0.00;;;;;;;27.61;40.49;101403.28;5053338;28;20040;-74
2023/06/18 02:12:50;;;;;;;0.00;0.00;;;;;;;27.81;39.97;101402.59;5053007;28;20655;-73
2023/06/18 02:15:16;;;;;;;0.00;0.00;;;;;;;27.67;40.48;101399.22;5052549;28;20045;-74
2023/06/18 02:17:42;;;;;;;0.00;0.00;;;;;;;27.47;40.72;101390.78;5052693;28;20110;-75
2023/06/18 02:20:10;;;;;;;0.00;0.00;;;;;;;27.71;40.58;101400.19;5052728;28;20108;-73
2023/06/18 02:22:36;;;;;;;0.00;0.00;;;;;;;27.73;40.54;101392.38;5053365;28;20071;-74
2023/06/18 02:25:02;;;;;;;0.00;0.00;;;;;;;27.66;40.30;101396.78;5052719;28;20033;-74
2023/06/18 02:27:28;;;;;;;0.00;0.00;;;;;;;27.55;41.20;101403.78;5052779;28;20559;-74
2023/06/18 02:29:53;;;;;;;0.00;0.00;;;;;;;27.59;40.72;101399.22;5052353;28;20102;-73
2023/06/18 02:32:18;;;;;;;0.00;0.00;;;;;;;27.52;41.06;101394.19;5033808;28;20033;-74
2023/06/18 02:34:44;;;;;;;0.00;0.00;;;;;;;27.52;41.22;101396.13;5052705;28;20028;-74
2023/06/18 02:37:09;;;;;;;0.00;0.00;;;;;;;27.64;41.05;101393.53;5052442;28;20055;-75
2023/06/18 02:39:35;;;;;;;0.00;0.00;;;;;;;27.70;40.36;101395.81;5057166;28;20075;-74
2023/06/18 02:42:00;;;;;;;0.00;0.00;;;;;;;27.57;40.83;101394.03;5036532;28;20032;-73
2023/06/18 02:44:28;;;;;;;0.00;0.00;;;;;;;27.59;41.38;101394.53;5052402;28;20029;-74
2023/06/18 02:46:54;;;;;;;0.00;0.00;;;;;;;27.53;41.55;101395.00;5052717;28;20032;-73
2023/06/18 02:49:20;;;;;;;0.00;0.00;;;;;;;27.48;41.33;101389.63;5052192;28;20033;-74
2023/06/18 02:51:46;;;;;;;0.00;0.00;;;;;;;27.58;41.13;101392.06;5052146;28;20037;-74
2023/06/18 02:54:11;;;;;;;0.00;0.00;;;;;;;27.47;41.48;101388.00;5034280;28;20060;-77
2023/06/18 02:56:37;;;;;;;0.00;0.00;;;;;;;27.48;41.28;101386.88;5052356;28;20060;-73
2023/06/18 02:59:02;;;;;;;0.05;0.05;;;;;;;27.25;42.18;101388.13;5051971;28;20029;-74
2023/06/18 03:01:32;;;;;;;0.00;0.00;;;;;;;27.38;41.65;101379.72;5052207;28;20033;-73
2023/06/18 03:03:58;;;;;;;0.00;0.00;;;;;;;27.19;42.41;101381.97;5033471;28;20040;-73
2023/06/18 03:06:27;;;;;;;0.00;0.00;;;;;;;27.33;42.40;101377.13;5051997;28;20033;-73
2023/06/18 03:08:53;;;;;;;0.00;0.00;;;;;;;27.25;42.10;101371.56;5033498;28;20065;-74
2023/06/18 03:11:18;;;;;;;0.00;0.00;;;;;;;27.35;42.19;101363.81;5033493;28;20037;-74
2023/06/18 03:13:44;;;;;;;0.00;0.00;;;;;;;27.13;42.27;101365.88;5050987;28;20035;-74
2023/06/18 03:16:09;;;;;;;0.00;0.00;;;;;;;27.59;41.84;101361.38;5051220;28;20021;-73
2023/06/18 03:18:35;;;;;;;0.00;0.00;;;;;;;27.46;41.98;101359.59;5051660;28;20033;-73
2023/06/18 03:21:00;;;;;;;0.00;0.00;;;;;;;27.25;42.30;101358.59;5051754;28;20381;-74
2023/06/18 03:23:26;;;;;;;0.00;0.00;;;;;;;27.40;42.00;101362.84;5051225;28;20091;-72
2023/06/18 03:25:51;;;;;;;0.00;0.00;;;;;;;27.34;42.28;101361.38;5051940;28;20033;-73
2023/06/18 03:28:17;;;;;;;0.00;0.00;;;;;;;27.55;41.96;101362.34;5051281;28;20044;-72
2023/06/18 03:30:43;;;;;;;0.00;0.00;;;;;;;27.41;41.84;101362.53;5051491;28;20059;-73
2023/06/18 03:33:10;;;;;;;0.00;0.00;;;;;;;27.37;42.23;101363.50;5051420;28;20501;-73
2023/06/18 03:35:37;;;;;;;0.00;0.00;;;;;;;27.46;41.70;101362.34;5051210;28;20040;-73
2023/06/18 03:38:03;;;;;;;0.00;0.00;;;;;;;27.26;42.13;101367.69;5050954;28;20142;-72
2023/06/18 03:40:28;;;;;;;0.00;0.00;;;;;;;27.09;42.84;101365.72;5059406;28;20100;-74
2023/06/18 03:42:54;;;;;;;0.00;0.00;;;;;;;27.11;43.30;101368.97;5051298;28;20040;-72
2023/06/18 03:45:20;;;;;;;0.00;0.00;;;;;;;27.20;42.93;101372.56;5050901;28;20402;-75
2023/06/18 03:47:46;;;;;;;0.00;0.00;;;;;;;27.21;42.80;101367.81;5050936;28;20033;-74
2023/06/18 03:50:11;;;;;;;0.00;0.00;;;;;;;27.11;43.14;101362.63;5050927;28;20032;-76
2023/06/18 03:52:36;;;;;;;0.00;0.00;;;;;;;27.18;42.81;101366.56;5051536;28;20043;-74
2023/06/18 03:55:02;;;;;;;0.00;0.00;;;;;;;27.05;42.80;101363.91;5051436;28;20099;-76
2023/06/18 03:57:29;;;;;;;0.00;0.00;;;;;;;27.16;42.50;101359.72;5051070;28;20163;-73
2023/06/18 03:59:55;;;;;;;0.00;0.00;;;;;;;27.19;43.06;101370.09;5032317;28;20081;-73
2023/06/18 04:02:20;;;;;;;0.00;0.00;;;;;;;27.14;42.87;101368.31;5048987;28;20037;-74
2023/06/18 04:04:45;;;;;;;0.00;0.00;;;;;;;27.06;43.30;101368.31;5050657;28;20027;-73
2023/06/18 04:07:11;;;;;;;0.00;0.00;;;;;;;27.05;43.22;101364.72;5032226;28;20519;-74
2023/06/18 04:09:36;;;;;;;0.05;0.05;;;;;;;27.19;42.77;101364.56;5050010;28;20103;-74
2023/06/18 04:12:02;;;;;;;0.00;0.00;;;;;;;27.35;42.18;101365.75;5042710;28;20037;-74
2023/06/18 04:14:27;;;;;;;0.00;0.00;;;;;;;27.28;42.67;101371.72;5047115;28;20045;-75
2023/06/18 04:16:53;;;;;;;0.00;0.00;;;;;;;27.13;42.96;101372.22;5047191;28;20033;-73
2023/06/18 04:19:18;;;;;;;0.00;0.00;;;;;;;27.15;43.42;101371.88;5031086;28;20037;-75
2023/06/18 04:21:44;;;;;;;0.00;0.00;;;;;;;27.05;43.24;101377.72;5031588;28;20051;-75
2023/06/18 04:24:09;;;;;;;0.00;0.00;;;;;;;27.18;42.67;101379.53;5039935;28;20037;-74
2023/06/18 04:26:34;;;;;;;0.00;0.00;;;;;;;27.20;43.51;101386.34;5030430;28;20523;-75
2023/06/18 04:29:00;;;;;;;0.00;0.00;;;;;;;27.16;43.09;101387.31;5031285;28;20021;-75
2023/06/18 04:31:25;;;;;;;0.00;0.00;;;;;;;27.30;42.77;101388.78;5050951;28;20441;-73
2023/06/18 04:33:51;;;;;;;0.00;0.00;;;;;;;27.51;42.51;101389.00;5056804;28;20420;-73
2023/06/18 04:36:16;;;;;;;0.00;0.00;;;;;;;27.37;42.44;101380.06;5048633;28;20044;-74
2023/06/18 04:38:41;;;;;;;0.00;0.00;;;;;;;27.39;42.43;101388.81;5056754;28;20036;-75
2023/06/18 04:41:07;;;;;;;0.00;0.00;;;;;;;27.34;42.31;101383.47;5032284;28;20040;-73
2023/06/18 04:43:33;;;;;;;0.00;0.00;;;;;;;27.37;42.33;101380.88;5030834;28;20542;-75
2023/06/18 04:45:59;;;;;;;0.00;0.00;;;;;;;27.41;42.70;101383.78;5047404;28;20037;-75
2023/06/18 04:48:24;;;;;;;0.00;0.00;;;;;;;27.38;42.57;101387.22;5058150;28;20040;-73
2023/06/18 04:50:50;;;;;;;0.00;0.00;;;;;;;27.35;42.83;101388.66;5057535;28;20032;-73
2023/06/18 04:53:15;;;;;;;0.00;0.00;;;;;;;27.55;42.43;101388.03;5055924;28;20037;-73
2023/06/18 04:55:41;;;;;;;0.00;0.00;;;;;;;27.62;41.89;101393.03;5029664;28;20048;-72
2023/06/18 04:58:07;;;;;;;0.00;0.00;;;;;;;27.53;41.79;101397.75;5026956;28;20033;-74
2023/06/18 05:00:33;;;;;;;0.00;0.00;;;;;;;27.69;42.05;101396.94;5031216;28;20112;-74
2023/06/18 05:02:59;;;;;;;0.00;0.00;;;;;;;27.76;41.58;101397.25;5049204;28;20033;-73
2023/06/18 05:05:25;;;;;;;0.00;0.00;;;;;;;27.72;41.92;101392.72;5048873;28;20552;-75
2023/06/18 05:07:50;;;;;;;0.00;0.00;;;;;;;27.73;42.44;101391.59;5049613;28;20049;-73
2023/06/18 05:10:16;;;;;;;0.00;0.00;;;;;;;27.88;41.52;101391.06;5030543;28;20068;-75
2023/06/18 05:12:41;;;;;;;0.00;0.00;;;;;;;27.95;41.79;101393.38;5030956;28;20041;-73
2023/06/18 05:15:07;;;;;;;0.00;0.00;;;;;;;28.02;41.66;101400.03;5048642;28;20048;-73
2023/06/18 05:17:34;;;;;;;0.00;0.00;;;;;;;28.04;41.07;101394.97;5048467;28;20072;-73
2023/06/18 05:20:01;;;;;;;0.00;0.00;;;;;;;27.98;41.25;101389.94;5048854;28;20521;-75
2023/06/18 05:22:26;;;;;;;0.00;0.00;;;;;;;28.07;41.05;101386.00;5049072;28;20021;-76
2023/06/18 05:24:51;;;;;;;0.00;0.00;;;;;;;28.05;41.87;101391.06;5030812;28;20044;-74
2023/06/18 05:27:17;;;;;;;0.00;0.00;;;;;;;28.30;41.08;101395.72;5048929;28;20036;-73
2023/06/18 05:29:42;;;;;;;0.00;0.00;;;;;;;28.32;40.58;101398.97;5043063;28;20502;-73
2023/06/18 05:32:09;;;;;;;0.00;0.00;;;;;;;28.42;40.64;101395.81;5046867;28;20361;-73
2023/06/18 05:34:35;;;;;;;0.00;0.00;;;;;;;28.58;40.26;101401.63;5049155;28;20025;-72
2023/06/18 05:37:00;;;;;;;0.00;0.00;;;;;;;27.92;41.86;101394.81;5051053;28;20033;-74
2023/06/18 05:39:26;;;;;;;0.00;0.00;;;;;;;28.67;40.16;101398.84;5053300;28;20306;-74
2023/06/18 05:41:51;;;;;;;0.00;0.00;;;;;;;28.45;40.50;101405.41;5038744;28;20032;-72
2023/06/18 05:44:17;;;;;;;0.00;0.00;;;;;;;28.92;39.75;101403.41;5053213;28;20037;-73
2023/06/18 05:46:42;;;;;;;0.00;0.00;;;;;;;28.92;39.88;101398.72;5053732;28;20554;-73
2023/06/18 05:49:09;;;;;;;0.00;0.00;;;;;;;28.73;40.17;101403.03;5052852;28;20037;-74
2023/06/18 05:51:35;;;;;;;0.00;0.00;;;;;;;28.55;40.27;101408.66;5053116;28;20037;-74
2023/06/18 05:54:00;;;;;;;0.00;0.00;;;;;;;28.89;39.84;101407.69;5052708;28;20501;-75
2023/06/18 05:56:26;;;;;;;0.00;0.00;;;;;;;29.04;39.70;101407.09;5053558;28;20029;-73
2023/06/18 05:58:51;;;;;;;0.00;0.00;;;;;;;28.72;40.57;101406.97;5053957;28;20020;-74
2023/06/18 06:01:16;;;;;;;0.00;0.00;;;;;;;28.92;40.00;101407.00;5052831;28;20164;-74
2023/06/18 06:03:42;;;;;;;0.00;0.00;;;;;;;28.59;40.57;101411.56;5053509;28;20041;-76
2023/06/18 06:06:08;;;;;;;0.00;0.00;;;;;;;28.62;40.62;101408.13;5053225;28;20036;-72
2023/06/18 06:08:33;;;;;;;0.00;0.00;;;;;;;29.04;40.09;101403.50;5053253;28;20048;-74
2023/06/18 06:10:59;;;;;;;0.00;0.00;;;;;;;28.85;39.99;101409.50;5053036;28;20025;-75
2023/06/18 06:13:24;;;;;;;0.00;0.00;;;;;;;29.11;39.64;101409.34;5053993;28;20116;-72
2023/06/18 06:15:49;;;;;;;0.00;0.00;;;;;;;28.84;40.42;101412.56;5053197;28;20063;-72
2023/06/18 06:18:15;;;;;;;0.00;0.00;;;;;;;28.57;41.27;101417.44;5052711;28;20092;-74
2023/06/18 06:20:40;;;;;;;0.00;0.00;;;;;;;28.76;40.94;101405.13;5053468;28;20489;-74
2023/06/18 06:23:06;;;;;;;0.00;0.00;;;;;;;28.85;40.75;101415.03;5049947;28;20037;-73
2023/06/18 06:25:31;;;;;;;0.00;0.00;;;;;;;29.02;40.65;101411.34;5053042;28;20020;-74
2023/06/18 06:27:58;;;;;;;0.00;0.00;;;;;;;29.22;39.47;101410.59;5053241;28;20041;-74
2023/06/18 06:30:23;;;;;;;0.00;0.00;;;;;;;29.21;40.57;101407.00;5052347;28;20163;-73
2023/06/18 06:32:50;;;;;;;0.00;0.00;;;;;;;29.36;40.12;101414.75;5034661;28;20041;-74
2023/06/18 06:35:15;;;;;;;0.00;0.00;;;;;;;29.18;40.16;101413.25;5053125;28;20486;-75
2023/06/18 06:37:41;;;;;;;0.00;0.00;;;;;;;29.40;39.69;101414.88;5053868;28;20112;-74
2023/06/18 06:40:07;;;;;;;0.00;0.00;;;;;;;29.40;39.38;101420.41;5045195;28;20042;-74
2023/06/18 06:42:33;;;;;;;0.00;0.00;;;;;;;29.56;39.47;101417.84;5052673;28;20037;-73
2023/06/18 06:45:00;;;;;;;0.00;0.00;;;;;;;29.63;39.82;101416.13;5034287;28;20032;-74
2023/06/18 06:47:25;;;;;;;0.00;0.00;;;;;;;29.94;38.79;101415.72;5052022;28;20029;-74
2023/06/18 06:49:50;;;;;;;0.00;0.00;;;;;;;29.93;38.75;101409.38;5052701;28;20028;-74
2023/06/18 06:52:16;;;;;;;0.00;0.00;;;;;;;29.71;39.18;101409.75;5052401;28;20041;-73
2023/06/18 06:54:41;;;;;;;0.00;0.00;;;;;;;30.00;38.17;101406.84;5051792;28;20048;-73
2023/06/18 06:57:06;;;;;;;0.00;0.00;;;;;;;29.97;38.28;101407.53;5051922;28;20063;-74
2023/06/18 06:59:32;;;;;;;0.00;0.00;;;;;;;30.37;37.49;101418.06;5051717;28;20052;-74
2023/06/18 07:01:58;;;;;;;0.00;0.00;;;;;;;30.43;37.89;101408.38;5033795;28;20033;-73
2023/06/18 07:04:23;;;;;;;0.00;0.00;;;;;;;30.26;37.76;101417.66;5034451;28;20457;-72
2023/06/18 07:06:49;;;;;;;0.00;0.00;;;;;;;30.50;37.25;101411.38;5033468;28;20044;-74
2023/06/18 07:09:15;;;;;;;0.00;0.00;;;;;;;30.71;37.12;101412.06;5035141;28;20047;-74
2023/06/18 07:11:40;;;;;;;0.00;0.00;;;;;;;30.75;36.97;101413.00;5016760;28;20077;-73
2023/06/18 07:14:06;;;;;;;0.00;0.00;;;;;;;30.82;36.58;101404.94;5011914;28;20045;-73
2023/06/18 07:16:32;;;;;;;0.00;0.00;;;;;;;30.94;36.40;101410.47;5032483;28;20017;-73
2023/06/18 07:18:57;;;;;;;0.00;0.00;;;;;;;30.79;36.89;101413.94;5032051;28;20040;-73
2023/06/18 07:21:23;;;;;;;0.00;0.00;;;;;;;31.10;36.48;101406.66;5031844;28;20032;-74
2023/06/18 07:23:48;;;;;;;0.00;0.00;;;;;;;31.32;36.21;101402.56;5018321;28;20522;-74
2023/06/18 07:26:13;;;;;;;0.00;0.00;;;;;;;31.58;35.84;101407.72;5030939;28;20029;-73
2023/06/18 07:28:39;;;;;;;0.00;0.00;;;;;;;31.97;34.67;101410.47;5010888;28;20021;-72
2023/06/18 07:31:04;;;;;;;0.00;0.00;;;;;;;32.13;34.17;101410.50;5037165;28;20095;-74
2023/06/18 07:33:30;;;;;;;0.00;0.00;;;;;;;31.27;36.07;101405.59;5034201;28;20040;-73
2023/06/18 07:35:55;;;;;;;0.00;0.00;;;;;;;31.63;34.44;101405.50;5039347;28;20037;-71
2023/06/18 07:38:22;;;;;;;0.00;0.00;;;;;;;31.86;33.61;101402.97;5035492;28;20338;-71
2023/06/18 07:40:48;;;;;;;0.00;0.00;;;;;;;31.81;34.64;101401.25;5037428;28;20504;-72
2023/06/18 07:43:13;;;;;;;0.00;0.00;;;;;;;32.02;33.36;101398.28;5036926;28;20044;-71
2023/06/18 07:45:38;;;;;;;0.00;0.00;;;;;;;32.16;32.36;101393.09;5041333;28;20036;-73
2023/06/18 07:48:04;;;;;;;0.00;0.00;;;;;;;32.16;32.94;101395.09;5038026;28;20025;-73
2023/06/18 07:50:29;;;;;;;0.00;0.00;;;;;;;32.22;32.66;101388.88;5036800;28;20041;-72
2023/06/18 07:52:55;;;;;;;0.00;0.00;;;;;;;32.43;31.82;101394.22;5032065;28;20040;-76
2023/06/18 07:55:20;;;;;;;0.00;0.00;;;;;;;31.71;34.11;101387.03;5038406;28;20121;-75
2023/06/18 07:57:46;;;;;;;0.00;0.00;;;;;;;31.99;33.38;101396.22;5035941;28;20048;-74
2023/06/18 08:00:11;;;;;;;0.00;0.00;;;;;;;32.41;32.32;101388.19;5025221;28;20026;-71
2023/06/18 08:02:37;;;;;;;0.00;0.00;;;;;;;32.67;31.86;101389.28;5016390;28;20132;-72
2023/06/18 08:05:03;;;;;;;0.00;0.00;;;;;;;32.48;32.17;101394.78;5027501;28;20024;-71
2023/06/18 08:07:29;;;;;;;0.00;0.00;;;;;;;32.58;32.08;101397.00;5040503;28;20021;-73
2023/06/18 08:09:54;;;;;;;0.00;0.00;;;;;;;32.70;32.26;101390.53;5050149;28;20033;-72
2023/06/18 08:12:19;;;;;;;0.00;0.00;;;;;;;33.19;31.16;101383.38;5051567;28;20865;-73
2023/06/18 08:14:48;;;;;;;0.00;0.00;;;;;;;33.12;31.00;101394.31;5053414;28;20033;-74
2023/06/18 08:17:17;;;;;;;0.00;0.00;;;;;;;33.12;31.45;101387.97;5050421;28;20024;-74
2023/06/18 08:19:45;;;;;;;0.00;0.00;;;;;;;33.34;31.41;101392.81;5056170;28;20013;-72
2023/06/18 08:22:11;;;;;;;0.00;0.00;;;;;;;32.82;31.34;101387.66;5060940;28;20718;-71
2023/06/18 08:24:36;;;;;;;0.00;0.00;;;;;;;33.14;31.23;101388.41;5046122;28;20044;-71
2023/06/18 08:27:02;;;;;;;0.00;0.00;;;;;;;33.35;30.71;101391.66;5060383;28;20040;-71
2023/06/18 08:29:27;;;;;;;0.00;0.00;;;;;;;33.56;30.19;101387.38;5058040;28;20052;-71
2023/06/18 08:31:53;;;;;;;0.00;0.00;;;;;;;33.61;30.42;101386.28;5061018;28;20051;-72
2023/06/18 08:34:18;;;;;;;0.00;0.00;;;;;;;33.77;30.33;101388.97;5049778;28;20045;-72
2023/06/18 08:36:47;;;;;;;0.00;0.00;;;;;;;33.84;30.49;101389.94;5048003;28;20037;-71
2023/06/18 08:39:13;;;;;;;0.00;0.00;;;;;;;33.85;30.40;101393.53;5047453;28;20127;-71
2023/06/18 08:41:42;;;;;;;0.00;0.00;;;;;;;33.81;30.58;101387.84;5025428;28;20037;-73
2023/06/18 08:44:07;;;;;;;0.00;0.00;;;;;;;34.45;30.27;101387.06;5042223;28;20040;-72
2023/06/18 08:46:35;;;;;;;0.00;0.00;;;;;;;34.71;29.73;101381.56;5059965;28;20032;-72
2023/06/18 08:49:02;;;;;;;0.00;0.00;;;;;;;35.20;28.59;101387.09;5063047;28;20128;-69
2023/06/18 08:51:28;;;;;;;0.00;0.00;;;;;;;34.45;28.39;101379.50;5045775;28;20036;-70
2023/06/18 08:54:09;;;;;;;0.00;0.00;;;;;;;35.24;27.73;101377.56;5063617;28;20037;-69
2023/06/18 08:56:40;;;;;;;0.00;0.00;;;;;;;35.66;26.77;101377.31;5047350;28;20040;-70
2023/06/18 08:59:06;;;;;;;0.00;0.00;;;;;;;35.81;27.23;101372.69;5065094;28;20029;-69
2023/06/18 09:01:32;;;;;;;0.00;0.00;;;;;;;35.66;26.92;101365.31;5065133;28;20404;-69
2023/06/18 09:03:59;;;;;;;0.00;0.00;;;;;;;36.37;26.09;101369.66;5047927;28;20459;-71
2023/06/18 09:06:25;;;;;;;0.00;0.00;;;;;;;35.99;26.15;101365.34;5040411;28;20064;-70
2023/06/18 09:08:52;;;;;;;0.00;0.00;;;;;;;35.54;26.43;101365.59;5029026;28;20029;-70
2023/06/18 09:11:17;;;;;;;0.00;0.00;;;;;;;35.80;25.96;101357.09;5028386;28;20033;-71
2023/06/18 09:13:43;;;;;;;0.00;0.00;;;;;;;35.60;26.00;101359.25;5033770;28;20070;-72
2023/06/18 09:16:10;;;;;;;0.00;0.00;;;;;;;35.76;26.17;101356.25;5032964;28;20038;-70
2023/06/18 09:18:35;;;;;;;0.00;0.00;;;;;;;35.90;24.87;101360.00;5032960;28;20056;-69
2023/06/18 09:21:03;;;;;;;0.00;0.00;;;;;;;35.99;25.46;101363.31;5033038;28;20038;-70
2023/06/18 09:23:29;;;;;;;0.00;0.00;;;;;;;35.59;25.67;101363.25;5032965;28;20029;-71
2023/06/18 09:25:56;;;;;;;0.00;0.00;;;;;;;35.91;25.21;101369.22;5033590;28;20037;-69
2023/06/18 09:28:23;;;;;;;0.00;0.00;;;;;;;35.90;24.91;101374.00;5053116;28;20069;-70
2023/06/18 09:30:53;;;;;;;0.00;0.00;;;;;;;35.93;25.23;101373.25;5034967;28;20068;-70
2023/06/18 09:33:29;;;;;;;;;;;;;;;36.38;24.74;101382.47;5039609;28;20041;-72
2023/06/18 09:36:07;;;;;;;0.00;0.00;;;;;;;35.80;25.18;101373.88;5034498;28;20015;-70
2023/06/18 09:38:40;;;;;;;0.00;0.00;;;;;;;35.83;25.00;101375.91;5034666;28;20044;-70
2023/06/18 09:41:14;;;;;;;0.00;0.00;;;;;;;34.93;26.59;101374.31;5014215;28;20045;-71
2023/06/18 09:43:41;;;;;;;0.00;0.00;;;;;;;35.57;25.81;101371.22;5051295;28;20532;-71
2023/06/18 09:46:07;;;;;;;0.00;0.00;;;;;;;35.54;25.46;101369.19;5068535;28;20111;-70
2023/06/18 09:48:35;;;;;;;0.00;0.00;;;;;;;34.80;26.85;101382.09;5067440;28;20039;-69
2023/06/18 09:51:00;;;;;;;0.00;0.00;;;;;;;34.90;27.11;101369.47;5053733;28;20029;-71
2023/06/18 09:53:26;;;;;;;0.00;0.00;;;;;;;34.76;26.90;101375.63;5054605;28;20037;-71
2023/06/18 09:55:51;;;;;;;0.00;0.00;;;;;;;34.88;27.50;101369.84;5055590;28;20515;-70
2023/06/18 09:58:17;;;;;;;0.00;0.00;;;;;;;34.94;27.23;101373.13;5065936;28;20067;-71
2023/06/18 10:00:42;;;;;;;0.00;0.00;;;;;;;35.30;26.20;101364.84;5055933;28;20048;-71
2023/06/18 10:03:07;;;;;;;0.00;0.00;;;;;;;35.03;26.04;101368.88;5063037;28;20083;-72
2023/06/18 10:05:34;;;;;;;0.00;0.00;;;;;;;35.64;25.15;101362.09;5054663;28;20381;-70
2023/06/18 10:08:03;;;;;;;0.00;0.00;;;;;;;36.09;25.17;101362.63;5053776;28;20044;-70
2023/06/18 10:10:30;;;;;;;0.00;0.00;;;;;;;35.48;24.95;101359.50;5053931;28;20025;-71
2023/06/18 10:13:00;;;;;;;0.00;0.00;;;;;;;35.79;24.32;101359.09;5060891;28;20651;-71
2023/06/18 10:15:26;;;;;;;0.00;0.00;;;;;;;35.92;24.66;101356.84;5058831;28;20033;-71
2023/06/18 10:17:55;;;;;;;0.00;0.00;;;;;;;36.10;24.41;101355.03;5051002;28;20052;-71
2023/06/18 10:20:23;;;;;;;0.00;0.00;;;;;;;36.24;23.84;101354.34;5050752;28;20045;-71
2023/06/18 10:22:54;;;;;;;0.00;0.00;;;;;;;36.12;22.47;101352.66;5061847;28;20047;-70
2023/06/18 10:25:21;;;;;;;0.00;0.00;;;;;;;35.93;23.04;101348.06;5056646;28;20032;-72
2023/06/18 10:27:48;;;;;;;0.00;0.00;;;;;;;36.57;23.43;101351.44;5056871;28;20021;-72
2023/06/18 10:30:14;;;;;;;0.00;0.00;;;;;;;36.41;22.54;101345.31;5057543;28;20034;-72
2023/06/18 10:32:42;;;;;;;0.00;0.00;;;;;;;36.65;21.80;101337.13;5056055;28;20397;-71
2023/06/18 10:35:09;;;;;;;0.00;0.00;;;;;;;36.34;21.71;101336.84;5057401;28;20021;-70
2023/06/18 10:37:36;;;;;;;0.00;0.00;;;;;;;35.69;20.94;101336.59;5057362;28;20028;-71
2023/06/18 10:40:03;;;;;;;0.00;0.00;;;;;;;36.41;20.66;101336.91;5055503;28;20066;-72
2023/06/18 10:42:31;;;;;;;0.00;0.00;;;;;;;36.40;20.96;101327.75;5055366;28;20378;-70
2023/06/18 10:45:00;;;;;;;0.00;0.00;;;;;;;36.04;21.07;101334.19;5051223;28;20047;-72
2023/06/18 10:47:30;;;;;;;0.00;0.00;;;;;;;36.25;21.61;101325.97;5051644;28;20121;-72
2023/06/18 10:50:02;;;;;;;0.00;0.00;;;;;;;36.56;21.85;101319.84;5050968;28;20027;-70
2023/06/18 10:52:30;;;;;;;0.00;0.00;;;;;;;36.53;22.11;101320.63;5044852;28;20025;-71
2023/06/18 10:55:09;;;;;;;0.00;0.00;;;;;;;37.09;21.10;101320.19;5048949;28;20026;-73
2023/06/18 10:57:40;;;;;;;0.00;0.00;;;;;;;36.95;20.79;101317.31;5049435;28;20480;-71
2023/06/18 11:00:19;;;;;;;0.00;0.00;;;;;;;36.59;19.78;101321.06;5035183;28;20048;-71
2023/06/18 11:02:46;;;;;;;0.00;0.00;;;;;;;37.24;19.66;101313.44;5052404;28;20133;-73
2023/06/18 11:05:45;;;;;;;0.00;0.00;;;;;;;37.39;19.99;101308.69;5058691;28;20021;-70
2023/06/18 11:08:15;;;;;;;0.00;0.00;;;;;;;37.15;19.25;101298.19;4974146;28;20043;-72
2023/06/18 11:10:45;;;;;;;0.00;0.00;;;;;;;37.66;18.59;101310.00;4974678;28;20069;-71
2023/06/18 11:13:11;;;;;;;0.00;0.00;;;;;;;37.68;19.50;101301.97;4964185;28;20046;-73
2023/06/18 11:16:05;;;;;;;0.00;0.00;;;;;;;37.26;18.46;101296.22;4965985;28;20039;-71
2023/06/18 11:18:31;;;;;;;0.00;0.00;;;;;;;37.66;18.93;101299.56;4963743;28;20082;-69
2023/06/18 11:20:58;;;;;;;0.00;0.00;;;;;;;38.13;17.84;101301.25;4965384;28;20447;-70
2023/06/18 11:23:25;;;;;;;0.00;0.00;;;;;;;38.19;18.01;101301.66;4965184;28;20493;-71